Time;durP1;ratioP1;P1;durP2;ratioP2;P2;SDS_P1;SDS_P2;PMS_P1;PMS_P2;Temp;Humidity;BMP_temperature;BMP_pressure;BME280_temperature;BME280_humidity;BME280_pressure;Samples;Min_cycle;Max_cycle;Signal;HPM_P1;HPM_P2
2022/04/12 00:01:09;;;;;;;21.13;13.55;;;8.20;99.90;;;;;;5062520;28;20048;-66
2022/04/12 00:03:35;;;;;;;22.23;14.48;;;8.30;99.90;;;;;;5067252;28;20024;-66
2022/04/12 00:06:01;;;;;;;23.25;14.90;;;8.20;99.90;;;;;;5067716;28;20040;-66
2022/04/12 00:08:26;;;;;;;21.02;13.70;;;8.20;99.90;;;;;;5068874;28;20039;-67
2022/04/12 00:10:53;;;;;;;24.25;15.10;;;8.10;99.90;;;;;;5066208;28;20032;-67
2022/04/12 00:13:19;;;;;;;22.67;14.40;;;8.10;99.90;;;;;;5069033;28;20050;-67
2022/04/12 00:15:48;;;;;;;26.67;15.20;;;8.00;99.90;;;;;;5071572;28;20040;-66
2022/04/12 00:20:59;;;;;;;24.33;14.48;;;8.10;99.90;;;;;;5060953;28;20119;-66
2022/04/12 00:23:24;;;;;;;24.85;14.30;;;8.00;99.90;;;;;;5057471;28;20083;-66
2022/04/12 00:25:52;;;;;;;21.17;13.73;;;8.00;99.90;;;;;;5056150;28;20029;-67
2022/04/12 00:28:19;;;;;;;23.25;13.90;;;7.90;99.90;;;;;;5061573;28;20046;-67
2022/04/12 00:30:44;;;;;;;23.23;13.85;;;7.90;99.90;;;;;;5067104;28;20024;-66
2022/04/12 00:33:10;;;;;;;24.65;15.15;;;7.90;99.90;;;;;;5066091;28;20104;-66
2022/04/12 00:35:36;;;;;;;22.73;14.50;;;7.80;99.90;;;;;;5063546;28;20093;-66
2022/04/12 00:38:13;;;;;;;21.63;13.68;;;7.80;99.90;;;;;;5067333;28;20039;-66
2022/04/12 00:40:39;;;;;;;23.48;14.10;;;7.70;99.90;;;;;;5064273;28;20545;-66
2022/04/12 00:43:05;;;;;;;19.70;13.98;;;7.70;99.90;;;;;;5065852;28;20041;-67
2022/04/12 00:45:30;;;;;;;23.90;14.07;;;7.70;99.90;;;;;;5066101;28;20123;-66
2022/04/12 00:47:56;;;;;;;20.92;14.20;;;7.60;99.90;;;;;;5069118;28;20036;-67
2022/04/12 00:50:21;;;;;;;22.67;14.07;;;7.60;99.90;;;;;;5044504;28;20124;-67
2022/04/12 00:52:49;;;;;;;22.95;14.15;;;7.60;99.90;;;;;;5069482;28;20103;-66
2022/04/12 00:55:16;;;;;;;23.98;14.13;;;7.50;99.90;;;;;;5061290;28;20025;-67
2022/04/12 00:57:42;;;;;;;22.63;13.10;;;7.40;99.90;;;;;;5069288;28;20032;-67
2022/04/12 01:00:09;;;;;;;21.40;13.30;;;7.40;99.90;;;;;;5066737;28;20122;-66
2022/04/12 01:02:35;;;;;;;21.02;13.90;;;7.30;99.90;;;;;;5069619;28;20033;-66
2022/04/12 01:05:05;;;;;;;23.60;13.40;;;7.40;99.90;;;;;;5065328;28;20055;-67
2022/04/12 01:07:31;;;;;;;20.55;13.48;;;7.30;99.90;;;;;;5052995;28;20024;-67
2022/04/12 01:09:58;;;;;;;21.00;14.00;;;7.30;99.90;;;;;;5063830;28;20044;-66
2022/04/12 01:12:26;;;;;;;21.88;13.10;;;7.20;99.90;;;;;;5064843;28;20048;-67
2022/04/12 01:14:52;;;;;;;21.50;13.57;;;7.30;99.90;;;;;;5069889;28;20385;-67
2022/04/12 01:17:18;;;;;;;20.20;13.15;;;7.30;99.90;;;;;;5058984;28;20029;-67
2022/04/12 01:19:44;;;;;;;19.80;12.32;;;7.20;99.90;;;;;;5065583;28;21381;-67
2022/04/12 01:22:15;;;;;;;21.85;13.23;;;7.10;99.90;;;;;;5062632;28;20119;-67
2022/04/12 01:24:41;;;;;;;22.13;13.35;;;7.10;99.90;;;;;;5059852;28;20028;-67
2022/04/12 01:27:07;;;;;;;22.80;12.70;;;7.10;99.90;;;;;;5055436;28;20041;-66
2022/04/12 01:29:35;;;;;;;20.88;12.68;;;7.20;99.90;;;;;;5056083;28;20053;-66
2022/04/12 01:32:07;;;;;;;23.40;13.27;;;7.20;99.90;;;;;;5060500;28;20021;-67
2022/04/12 01:34:34;;;;;;;21.00;13.48;;;7.20;99.90;;;;;;5069357;28;20095;-66
2022/04/12 01:37:02;;;;;;;19.67;12.65;;;7.20;99.90;;;;;;5062772;28;20029;-67
2022/04/12 01:39:28;;;;;;;20.27;12.35;;;7.10;99.90;;;;;;5059816;28;20037;-66
2022/04/12 01:41:54;;;;;;;22.30;12.38;;;7.10;99.90;;;;;;5063981;28;20017;-67
2022/04/12 01:44:19;;;;;;;21.30;12.02;;;7.10;99.90;;;;;;5064503;28;20091;-65
2022/04/12 01:46:45;;;;;;;21.08;13.02;;;7.20;99.90;;;;;;5059771;28;20036;-65
2022/04/12 01:49:11;;;;;;;18.98;12.52;;;7.10;99.90;;;;;;5059724;28;20022;-66
2022/04/12 01:51:36;;;;;;;18.85;12.65;;;7.20;99.90;;;;;;5068683;28;20041;-65
2022/04/12 01:54:02;;;;;;;19.73;12.18;;;7.20;99.90;;;;;;5064154;28;20029;-66
2022/04/12 01:56:28;;;;;;;19.77;11.60;;;7.10;99.90;;;;;;5059427;28;20021;-66
2022/04/12 01:58:54;;;;;;;19.85;12.23;;;7.00;99.90;;;;;;5058842;28;20107;-66
2022/04/12 02:01:20;;;;;;;21.42;11.75;;;6.90;99.90;;;;;;5058455;28;20386;-66
2022/04/12 02:03:47;;;;;;;19.27;12.70;;;6.90;99.90;;;;;;5059214;28;20028;-66
2022/04/12 02:06:12;;;;;;;22.50;12.95;;;6.90;99.90;;;;;;5063674;28;20048;-66
2022/04/12 02:08:40;;;;;;;20.05;12.93;;;6.90;99.90;;;;;;5063793;28;20025;-66
2022/04/12 02:11:06;;;;;;;18.05;12.85;;;6.70;99.90;;;;;;5061984;28;20033;-67
2022/04/12 02:13:32;;;;;;;19.35;12.52;;;6.70;99.90;;;;;;5061933;28;20104;-66
2022/04/12 02:15:58;;;;;;;20.95;12.23;;;6.70;99.90;;;;;;5066629;28;20053;-67
2022/04/12 02:18:24;;;;;;;23.35;12.43;;;6.70;99.90;;;;;;5065099;28;20028;-66
2022/04/12 02:20:49;;;;;;;21.40;12.05;;;6.70;99.90;;;;;;5061393;28;20020;-67
2022/04/12 02:23:15;;;;;;;21.58;12.30;;;6.70;99.90;;;;;;5057320;28;20071;-66
2022/04/12 02:25:41;;;;;;;21.73;12.13;;;6.70;99.90;;;;;;5063263;28;20036;-67
2022/04/12 02:28:06;;;;;;;21.73;11.60;;;6.80;99.90;;;;;;5055418;28;20052;-66
2022/04/12 02:30:32;;;;;;;19.83;11.85;;;6.70;99.90;;;;;;5055710;28;20540;-66
2022/04/12 02:32:59;;;;;;;17.65;11.10;;;6.90;99.90;;;;;;5063385;28;20028;-67
2022/04/12 02:35:25;;;;;;;19.55;11.75;;;6.80;99.90;;;;;;5060522;28;20138;-66
2022/04/12 02:37:51;;;;;;;18.92;11.70;;;6.90;99.90;;;;;;5065256;28;20027;-66
2022/04/12 02:40:17;;;;;;;20.02;11.73;;;6.90;99.90;;;;;;5067875;28;20025;-66
2022/04/12 02:42:43;;;;;;;20.80;12.27;;;6.90;99.90;;;;;;5068301;28;20025;-66
2022/04/12 02:45:09;;;;;;;21.77;12.68;;;6.70;99.90;;;;;;5062643;28;20052;-66
2022/04/12 02:47:35;;;;;;;17.42;11.68;;;6.70;99.90;;;;;;5064633;28;20037;-66
2022/04/12 02:50:05;;;;;;;19.30;12.00;;;6.70;99.90;;;;;;5059405;28;20076;-66
2022/04/12 02:52:31;;;;;;;17.38;11.68;;;6.70;99.90;;;;;;5059481;28;20059;-66
2022/04/12 02:54:57;;;;;;;19.63;12.10;;;6.60;99.90;;;;;;5064805;28;20029;-66
2022/04/12 02:57:22;;;;;;;18.13;11.60;;;6.50;99.90;;;;;;5067938;28;20029;-66
2022/04/12 02:59:48;;;;;;;20.75;13.43;;;6.50;99.90;;;;;;5057208;28;20056;-66
2022/04/12 03:02:14;;;;;;;20.30;11.77;;;6.50;99.90;;;;;;5057883;28;20070;-66
2022/04/12 03:04:40;;;;;;;19.13;12.35;;;6.50;99.90;;;;;;5062919;28;20028;-66
2022/04/12 03:07:07;;;;;;;18.08;11.55;;;6.50;99.90;;;;;;5063744;28;20456;-66
2022/04/12 03:09:33;;;;;;;19.17;12.18;;;6.50;99.90;;;;;;5064415;28;20040;-66
2022/04/12 03:11:58;;;;;;;20.27;12.80;;;6.50;99.90;;;;;;5069434;28;20029;-66
2022/04/12 03:14:24;;;;;;;17.63;11.80;;;6.50;99.90;;;;;;5055722;28;20084;-66
2022/04/12 03:16:52;;;;;;;20.55;12.38;;;6.40;99.90;;;;;;5064348;28;20078;-66
2022/04/12 03:19:18;;;;;;;19.95;12.23;;;6.30;99.90;;;;;;5063601;28;20531;-66
2022/04/12 03:21:44;;;;;;;21.55;12.68;;;6.30;99.90;;;;;;5062009;28;20028;-65
2022/04/12 03:24:10;;;;;;;23.35;12.75;;;6.20;99.90;;;;;;5053389;28;20021;-66
2022/04/12 03:26:36;;;;;;;20.88;12.65;;;6.20;99.90;;;;;;5062577;28;20070;-66
2022/04/12 03:29:02;;;;;;;19.02;11.90;;;6.10;99.90;;;;;;5062014;28;20056;-66
2022/04/12 03:31:28;;;;;;;20.23;12.70;;;6.10;99.90;;;;;;5057921;28;20041;-66
2022/04/12 03:33:53;;;;;;;20.40;12.40;;;6.10;99.90;;;;;;5053737;28;20245;-65
2022/04/12 03:36:19;;;;;;;21.40;12.60;;;6.00;99.90;;;;;;5052240;28;20020;-66
2022/04/12 03:38:51;;;;;;;22.13;12.77;;;6.00;99.90;;;;;;5058385;28;20106;-66
2022/04/12 03:41:23;;;;;;;20.33;12.13;;;6.00;99.90;;;;;;5049142;28;20049;-66
2022/04/12 03:43:52;;;;;;;19.15;11.60;;;6.00;99.90;;;;;;5068368;28;20036;-66
2022/04/12 03:46:18;;;;;;;20.13;12.68;;;6.00;99.90;;;;;;5065020;28;20060;-66
2022/04/12 03:48:45;;;;;;;21.83;12.88;;;5.90;99.90;;;;;;5070202;28;20020;-66
2022/04/12 03:51:12;;;;;;;20.75;12.93;;;5.90;99.90;;;;;;5052506;28;20488;-66
2022/04/12 03:53:37;;;;;;;19.45;12.15;;;6.00;99.90;;;;;;5058890;28;20028;-66
2022/04/12 03:56:07;;;;;;;20.98;13.63;;;6.00;99.90;;;;;;5054012;28;20036;-66
2022/04/12 03:58:37;;;;;;;18.92;12.27;;;6.00;99.90;;;;;;5059821;28;20032;-66
2022/04/12 04:01:03;;;;;;;20.70;12.50;;;5.90;99.90;;;;;;5062915;28;20094;-66
2022/04/12 04:03:30;;;;;;;22.08;12.40;;;5.90;99.90;;;;;;5054427;28;20094;-65
2022/04/12 04:05:55;;;;;;;20.48;12.57;;;5.90;99.90;;;;;;5061827;28;20037;-66
2022/04/12 04:08:21;;;;;;;20.95;13.25;;;5.90;99.90;;;;;;5047175;28;20469;-66
2022/04/12 04:10:47;;;;;;;22.58;12.50;;;5.90;99.90;;;;;;5054574;28;20037;-66
2022/04/12 04:13:14;;;;;;;22.05;12.88;;;5.80;99.90;;;;;;5059145;28;20060;-65
2022/04/12 04:15:40;;;;;;;22.20;13.43;;;5.80;99.90;;;;;;5064287;28;20033;-66
2022/04/12 04:18:09;;;;;;;22.38;13.10;;;5.80;99.90;;;;;;5061587;28;20088;-66
2022/04/12 04:20:35;;;;;;;19.35;12.75;;;5.70;99.90;;;;;;5061680;28;20025;-66
2022/04/12 04:23:01;;;;;;;20.15;11.95;;;5.70;99.90;;;;;;5057923;28;20053;-66
2022/04/12 04:25:27;;;;;;;21.98;12.70;;;5.70;99.90;;;;;;5063025;28;20033;-66
2022/04/12 04:27:53;;;;;;;25.15;14.13;;;5.70;99.90;;;;;;5063428;28;20028;-65
2022/04/12 04:30:19;;;;;;;20.42;13.23;;;5.70;99.90;;;;;;5071124;28;20081;-65
2022/04/12 04:32:45;;;;;;;20.65;12.68;;;5.80;99.90;;;;;;5057813;28;20116;-66
2022/04/12 04:35:11;;;;;;;22.08;14.02;;;5.70;99.90;;;;;;5064908;28;20056;-66
2022/04/12 04:37:44;;;;;;;23.10;14.13;;;5.70;99.90;;;;;;5062608;28;20039;-66
2022/04/12 04:40:13;;;;;;;21.20;13.45;;;5.70;99.90;;;;;;5059638;28;20040;-67
2022/04/12 04:42:40;;;;;;;19.17;12.25;;;5.80;99.90;;;;;;5062727;28;20055;-66
2022/04/12 04:45:07;;;;;;;20.35;12.77;;;5.90;99.90;;;;;;5072545;28;20074;-68
2022/04/12 04:47:35;;;;;;;20.95;12.23;;;6.00;99.90;;;;;;5068859;28;22033;-67
2022/04/12 04:50:01;;;;;;;18.92;11.98;;;6.00;99.90;;;;;;5070548;28;20450;-66
2022/04/12 04:52:27;;;;;;;19.88;13.27;;;6.10;99.90;;;;;;5057876;28;20751;-68
2022/04/12 04:54:53;;;;;;;21.20;12.98;;;6.00;99.90;;;;;;5068813;28;20072;-67
2022/04/12 04:57:18;;;;;;;20.95;13.05;;;5.90;99.90;;;;;;5067325;28;20045;-66
2022/04/12 04:59:44;;;;;;;22.75;14.13;;;5.90;99.90;;;;;;5066022;28;20064;-65
2022/04/12 05:02:09;;;;;;;22.60;13.20;;;5.90;99.90;;;;;;5065660;28;20382;-65
2022/04/12 05:04:35;;;;;;;20.50;12.18;;;6.10;99.90;;;;;;5063092;28;20033;-65
2022/04/12 05:07:01;;;;;;;18.20;11.38;;;6.10;99.90;;;;;;5062753;28;20123;-65
2022/04/12 05:09:26;;;;;;;20.90;12.07;;;6.10;99.90;;;;;;5056039;28;20033;-65
2022/04/12 05:11:52;;;;;;;17.83;10.90;;;6.20;99.90;;;;;;5060091;28;20036;-65
2022/04/12 05:14:19;;;;;;;22.13;12.82;;;6.10;99.90;;;;;;5065712;28;20041;-65
2022/04/12 05:16:44;;;;;;;20.05;11.77;;;6.20;99.90;;;;;;5075150;28;20032;-65
2022/04/12 05:19:10;;;;;;;19.55;12.05;;;6.20;99.90;;;;;;5062256;28;20031;-65
2022/04/12 05:21:36;;;;;;;21.85;11.88;;;6.20;99.90;;;;;;5057346;28;20048;-65
2022/04/12 05:24:03;;;;;;;21.60;12.45;;;6.20;99.90;;;;;;5049658;28;20037;-65
2022/04/12 05:26:28;;;;;;;21.75;13.02;;;6.20;99.90;;;;;;5056375;28;20496;-66
2022/04/12 05:28:54;;;;;;;19.70;11.90;;;6.30;99.90;;;;;;5056120;28;20024;-66
2022/04/12 05:31:19;;;;;;;18.00;10.95;;;6.30;99.90;;;;;;5071024;28;20041;-66
2022/04/12 05:33:45;;;;;;;19.67;11.73;;;6.40;99.90;;;;;;5061168;28;20076;-66
2022/04/12 05:36:11;;;;;;;17.55;11.32;;;6.50;99.90;;;;;;5059985;28;20037;-66
2022/04/12 05:38:37;;;;;;;19.83;12.32;;;6.60;99.90;;;;;;5065469;28;20101;-65
2022/04/12 05:41:02;;;;;;;21.48;12.13;;;6.60;99.90;;;;;;5059042;28;20031;-66
2022/04/12 05:43:28;;;;;;;21.42;12.25;;;6.70;99.90;;;;;;5064245;28;20041;-66
2022/04/12 05:45:53;;;;;;;21.52;12.05;;;6.90;99.90;;;;;;5070042;28;20032;-66
2022/04/12 05:48:19;;;;;;;20.48;12.15;;;7.00;99.90;;;;;;5069599;28;20025;-66
2022/04/12 05:50:45;;;;;;;20.60;11.05;;;7.60;99.90;;;;;;5063101;28;20060;-66
2022/04/12 05:53:10;;;;;;;19.98;11.55;;;7.90;99.90;;;;;;5051184;28;20017;-66
2022/04/12 05:55:36;;;;;;;21.88;10.75;;;7.90;99.90;;;;;;5068057;28;20118;-66
2022/04/12 05:58:03;;;;;;;20.73;11.57;;;8.10;99.90;;;;;;5063082;28;20040;-66
2022/04/12 06:00:31;;;;;;;15.75;10.55;;;8.50;99.90;;;;;;5060222;28;20052;-66
2022/04/12 06:02:58;;;;;;;20.52;11.10;;;8.40;99.90;;;;;;5058489;28;20020;-66
2022/04/12 06:05:32;;;;;;;18.33;11.20;;;8.40;99.90;;;;;;5058645;28;20086;-66
2022/04/12 06:07:59;;;;;;;17.65;10.27;;;8.20;99.90;;;;;;5065586;28;20063;-66
2022/04/12 06:10:25;;;;;;;19.35;11.43;;;8.10;99.90;;;;;;5059708;28;20044;-65
2022/04/12 06:12:51;;;;;;;19.10;11.10;;;8.10;99.90;;;;;;5060763;28;20132;-65
2022/04/12 06:15:19;;;;;;;22.65;10.85;;;8.10;99.90;;;;;;5057184;28;20031;-66
2022/04/12 06:17:45;;;;;;;18.27;10.70;;;8.20;99.90;;;;;;5055548;28;20031;-66
2022/04/12 06:20:16;;;;;;;17.70;11.00;;;8.20;99.90;;;;;;5057490;28;20025;-66
2022/04/12 06:22:42;;;;;;;16.30;10.25;;;8.20;99.90;;;;;;5066045;28;20070;-66
2022/04/12 06:25:10;;;;;;;16.45;11.00;;;8.20;99.90;;;;;;5069742;28;20491;-66
2022/04/12 06:27:38;;;;;;;19.02;11.80;;;8.20;99.90;;;;;;5054476;28;20079;-65
2022/04/12 06:30:07;;;;;;;19.08;11.55;;;8.20;99.90;;;;;;5063693;28;20024;-65
2022/04/12 06:32:34;;;;;;;18.15;10.80;;;8.40;99.90;;;;;;5061762;28;20484;-67
2022/04/12 06:35:00;;;;;;;19.77;10.57;;;8.40;99.90;;;;;;5059686;28;20032;-66
2022/04/12 06:37:27;;;;;;;19.55;10.60;;;8.50;99.90;;;;;;5057342;28;20029;-65
2022/04/12 06:39:55;;;;;;;20.58;11.68;;;8.50;99.90;;;;;;5060382;28;20025;-65
2022/04/12 06:42:21;;;;;;;18.85;10.90;;;8.50;99.90;;;;;;5056562;28;20092;-66
2022/04/12 06:44:47;;;;;;;20.08;11.32;;;8.60;99.90;;;;;;5060699;28;20136;-66
2022/04/12 06:47:15;;;;;;;19.67;11.18;;;8.50;99.90;;;;;;5060412;28;20568;-66
2022/04/12 06:49:43;;;;;;;19.38;11.52;;;8.60;99.90;;;;;;5059954;28;20381;-66
2022/04/12 06:52:09;;;;;;;18.65;10.65;;;8.50;99.90;;;;;;5060236;28;20040;-66
2022/04/12 06:54:35;;;;;;;18.02;10.75;;;8.60;99.90;;;;;;5060166;28;20497;-66
2022/04/12 06:57:00;;;;;;;19.88;10.77;;;8.60;99.90;;;;;;5056116;28;20040;-67
2022/04/12 06:59:26;;;;;;;17.30;10.55;;;8.80;99.90;;;;;;5053071;28;20045;-67
2022/04/12 07:01:51;;;;;;;20.00;10.43;;;8.90;99.90;;;;;;5059704;28;20043;-67
2022/04/12 07:04:17;;;;;;;18.98;10.80;;;8.90;99.90;;;;;;5059832;28;20516;-67
2022/04/12 07:06:43;;;;;;;16.52;10.98;;;8.90;99.90;;;;;;5059702;28;20127;-67
2022/04/12 07:09:11;;;;;;;17.33;10.18;;;9.00;99.90;;;;;;5058284;28;20033;-67
2022/04/12 07:11:36;;;;;;;16.35;10.35;;;9.30;99.90;;;;;;5059000;28;20025;-67
2022/04/12 07:14:02;;;;;;;16.92;10.43;;;9.50;99.90;;;;;;5060163;28;20122;-68
2022/04/12 07:16:28;;;;;;;19.02;10.73;;;9.50;99.90;;;;;;5048871;28;20045;-67
2022/04/12 07:18:53;;;;;;;17.77;10.60;;;9.80;99.90;;;;;;5040649;28;20029;-67
2022/04/12 07:21:21;;;;;;;19.70;11.20;;;10.10;99.90;;;;;;5058896;28;20036;-67
2022/04/12 07:23:49;;;;;;;16.80;9.82;;;10.70;99.90;;;;;;5058860;28;20044;-67
2022/04/12 07:26:15;;;;;;;20.10;10.77;;;11.10;99.90;;;;;;5060752;28;20033;-67
2022/04/12 07:28:41;;;;;;;15.98;10.00;;;11.40;99.90;;;;;;5058247;28;20031;-67
2022/04/12 07:31:06;;;;;;;17.80;10.07;;;11.60;99.90;;;;;;5059966;28;20056;-68
2022/04/12 07:33:32;;;;;;;17.50;10.50;;;11.90;99.90;;;;;;5058645;28;20025;-67
2022/04/12 07:35:58;;;;;;;16.10;10.48;;;12.40;99.90;;;;;;5063713;28;20029;-67
2022/04/12 07:38:23;;;;;;;18.20;10.85;;;13.50;99.90;;;;;;5062468;28;20117;-67
2022/04/12 07:40:53;;;;;;;16.48;10.27;;;13.00;99.90;;;;;;5062005;28;20025;-68
2022/04/12 07:43:19;;;;;;;15.23;9.73;;;13.20;97.30;;;;;;5063300;28;20025;-67
2022/04/12 07:45:44;;;;;;;16.17;9.15;;;13.70;93.50;;;;;;5055322;28;20146;-68
2022/04/12 07:48:11;;;;;;;15.60;9.23;;;14.90;93.40;;;;;;5056024;28;20112;-67
2022/04/12 07:50:36;;;;;;;15.48;9.50;;;16.00;89.30;;;;;;5061870;28;20045;-67
2022/04/12 07:53:02;;;;;;;17.38;9.15;;;16.50;80.80;;;;;;5061682;28;20032;-67
2022/04/12 07:55:28;;;;;;;17.05;9.50;;;17.20;65.90;;;;;;5056075;28;20043;-67
2022/04/12 07:57:53;;;;;;;17.88;9.95;;;16.40;63.60;;;;;;5055132;28;21422;-67
2022/04/12 08:00:19;;;;;;;17.45;9.55;;;18.00;69.60;;;;;;5054737;28;20033;-67
2022/04/12 08:02:45;;;;;;;18.90;10.02;;;18.30;60.80;;;;;;5059644;28;20124;-68
2022/04/12 08:05:10;;;;;;;13.98;8.65;;;18.80;57.10;;;;;;5057025;28;20063;-68
2022/04/12 08:07:36;;;;;;;14.35;9.48;;;17.60;53.50;;;;;;5068352;28;20090;-68
2022/04/12 08:10:02;;;;;;;14.27;8.70;;;17.80;55.20;;;;;;5063479;28;20112;-66
2022/04/12 08:12:27;;;;;;;15.02;9.40;;;18.10;55.80;;;;;;5068361;28;20131;-66
2022/04/12 08:14:53;;;;;;;14.45;9.10;;;18.10;56.10;;;;;;5057182;28;20040;-66
2022/04/12 08:17:19;;;;;;;14.93;9.55;;;18.10;57.50;;;;;;5061987;28;20029;-66
2022/04/12 08:19:44;;;;;;;15.02;9.55;;;17.40;56.90;;;;;;5061147;28;20053;-66
2022/04/12 08:22:10;;;;;;;16.98;9.40;;;18.70;58.70;;;;;;5065580;28;20095;-66
2022/04/12 08:24:36;;;;;;;14.45;8.95;;;18.50;57.60;;;;;;5060108;28;20025;-66
2022/04/12 08:27:03;;;;;;;16.58;9.27;;;18.70;57.30;;;;;;5054214;28;20513;-66
2022/04/12 08:29:29;;;;;;;15.23;8.98;;;19.30;54.40;;;;;;5062104;28;20025;-66
2022/04/12 08:31:55;;;;;;;14.63;8.52;;;18.50;55.90;;;;;;5062827;28;20033;-67
2022/04/12 08:34:20;;;;;;;14.23;8.48;;;18.90;55.20;;;;;;5066515;28;20508;-66
2022/04/12 08:36:49;;;;;;;17.30;8.95;;;19.10;53.30;;;;;;5063779;28;20065;-66
2022/04/12 08:39:14;;;;;;;13.30;8.27;;;19.30;51.60;;;;;;5068467;28;20025;-66
2022/04/12 08:41:41;;;;;;;14.88;8.55;;;19.30;51.40;;;;;;5064254;28;20029;-66
2022/04/12 08:44:07;;;;;;;12.98;8.18;;;21.20;51.70;;;;;;5070308;28;20033;-66
2022/04/12 08:46:33;;;;;;;14.25;8.57;;;22.10;52.00;;;;;;5066604;28;20048;-66
2022/04/12 08:48:59;;;;;;;17.23;8.70;;;21.70;48.70;;;;;;5067127;28;20093;-67
2022/04/12 08:51:29;;;;;;;14.90;8.25;;;21.90;46.70;;;;;;5061230;28;20063;-67
2022/04/12 08:53:57;;;;;;;13.55;8.00;;;21.40;46.60;;;;;;5070221;28;20050;-67
2022/04/12 08:56:24;;;;;;;15.32;9.00;;;20.90;45.20;;;;;;5073896;28;20115;-67
2022/04/12 08:58:49;;;;;;;15.02;8.48;;;20.80;48.60;;;;;;5071476;28;20025;-67
2022/04/12 09:01:15;;;;;;;14.20;8.77;;;20.00;47.50;;;;;;5053061;28;20027;-67
2022/04/12 09:03:41;;;;;;;13.82;8.30;;;20.40;48.50;;;;;;5060555;28;20040;-67
2022/04/12 09:06:10;;;;;;;16.20;8.63;;;20.50;51.50;;;;;;5066791;28;20032;-66
2022/04/12 09:08:35;;;;;;;17.10;8.32;;;20.60;50.90;;;;;;5063993;28;20034;-66
2022/04/12 09:11:04;;;;;;;14.60;8.82;;;20.30;48.10;;;;;;5061482;28;20648;-67
2022/04/12 09:13:32;;;;;;;14.25;8.70;;;21.60;50.90;;;;;;5053738;28;20042;-67
2022/04/12 09:15:59;;;;;;;13.13;8.02;;;20.50;47.00;;;;;;5058913;28;20056;-67
2022/04/12 09:18:50;;;;;;;13.63;8.38;;;21.20;52.40;;;;;;5058423;28;20396;-67
2022/04/12 09:21:18;;;;;;;14.93;8.55;;;20.30;49.30;;;;;;5054287;28;20098;-66
2022/04/12 09:23:52;;;;;;;16.08;8.55;;;19.50;54.20;;;;;;5060455;28;20036;-66
2022/04/12 09:26:29;;;;;;;13.55;7.82;;;19.70;53.60;;;;;;5059856;28;20032;-66
2022/04/12 09:28:56;;;;;;;13.75;8.18;;;19.30;51.90;;;;;;5055053;28;20025;-75
2022/04/12 09:31:23;;;;;;;19.10;8.68;;;18.30;53.90;;;;;;5060589;28;20028;-67
2022/04/12 09:33:51;;;;;;;16.67;8.45;;;18.00;57.10;;;;;;5058828;28;20035;-68
2022/04/12 09:36:17;;;;;;;13.45;8.27;;;19.30;61.70;;;;;;5069003;28;20079;-68
2022/04/12 09:38:45;;;;;;;15.90;8.13;;;19.70;56.00;;;;;;5057778;28;20026;-69
2022/04/12 09:41:23;;;;;;;14.30;8.20;;;20.10;55.20;;;;;;5069780;28;20543;-68
2022/04/12 09:44:08;;;;;;;14.10;8.50;;;19.90;55.20;;;;;;5060580;28;20035;-68
2022/04/12 09:46:36;;;;;;;13.27;8.50;;;19.80;56.30;;;;;;5078222;28;20032;-67
2022/04/12 09:49:01;;;;;;;15.82;8.50;;;20.10;55.80;;;;;;5056699;28;20018;-70
2022/04/12 09:51:27;;;;;;;13.43;8.77;;;20.80;50.80;;;;;;5058930;28;20116;-68
2022/04/12 09:53:53;;;;;;;13.27;8.35;;;21.00;53.00;;;;;;5071932;28;20125;-68
2022/04/12 09:56:20;;;;;;;13.48;8.63;;;21.90;49.40;;;;;;5059287;28;20052;-68
2022/04/12 09:58:48;;;;;;;14.55;8.48;;;23.00;48.80;;;;;;5058954;28;20032;-68
2022/04/12 10:01:14;;;;;;;16.02;8.68;;;22.70;44.90;;;;;;5050550;28;20017;-69
2022/04/12 10:03:44;;;;;;;12.35;7.78;;;22.60;50.40;;;;;;5052885;28;20036;-68
2022/04/12 10:06:13;;;;;;;14.48;8.32;;;23.80;49.30;;;;;;5054644;28;20025;-68
2022/04/12 10:08:40;;;;;;;12.45;7.85;;;23.00;44.60;;;;;;5048706;28;20048;-68
2022/04/12 10:11:08;;;;;;;12.38;7.70;;;24.00;47.00;;;;;;5052144;28;20067;-68
2022/04/12 10:13:34;;;;;;;13.82;8.25;;;24.20;45.80;;;;;;5051116;28;20048;-68
2022/04/12 10:15:59;;;;;;;13.82;8.20;;;24.10;47.20;;;;;;5056031;28;20025;-68
2022/04/12 10:18:27;;;;;;;13.60;8.07;;;24.30;43.80;;;;;;5054844;28;20047;-68
2022/04/12 10:20:53;;;;;;;11.93;7.28;;;23.70;45.40;;;;;;5053788;28;20044;-70
2022/04/12 10:23:23;;;;;;;12.65;7.43;;;24.60;44.80;;;;;;5055400;28;20033;-69
2022/04/12 10:25:51;;;;;;;12.30;7.57;;;24.20;46.20;;;;;;5059524;28;20047;-70
2022/04/12 10:28:18;;;;;;;14.13;7.80;;;24.60;46.60;;;;;;5055539;28;20021;-69
2022/04/12 10:30:44;;;;;;;14.05;8.30;;;24.20;44.60;;;;;;5053317;28;20025;-70
2022/04/12 10:33:16;;;;;;;11.95;7.45;;;25.30;42.40;;;;;;5060355;28;20036;-70
2022/04/12 10:35:44;;;;;;;13.80;8.05;;;25.40;43.30;;;;;;5062044;28;20029;-70
2022/04/12 10:38:15;;;;;;;15.75;8.38;;;25.90;44.90;;;;;;5060803;28;20048;-70
2022/04/12 10:40:52;;;;;;;12.68;7.78;;;24.30;40.40;;;;;;5059017;28;20075;-70
2022/04/12 10:43:30;;;;;;;12.23;8.10;;;24.80;44.50;;;;;;5061563;28;20040;-70
2022/04/12 10:45:57;;;;;;;13.32;7.97;;;24.90;42.80;;;;;;5060436;28;20032;-70
2022/04/12 10:48:27;;;;;;;12.98;8.25;;;26.10;44.50;;;;;;5058759;28;20036;-70
2022/04/12 10:50:56;;;;;;;15.07;8.20;;;24.00;41.00;;;;;;5047315;28;20032;-70
2022/04/12 10:53:40;;;;;;;13.13;8.38;;;24.40;43.70;;;;;;5039558;28;20389;-70
2022/04/12 10:56:07;;;;;;;14.02;8.30;;;23.60;42.30;;;;;;5049565;28;20060;-70
2022/04/12 10:58:33;;;;;;;14.07;8.18;;;23.10;43.60;;;;;;5059968;28;20021;-70
2022/04/12 11:01:00;;;;;;;15.00;8.52;;;23.00;45.40;;;;;;5059978;28;20366;-69
2022/04/12 11:03:40;;;;;;;12.50;8.10;;;23.80;46.50;;;;;;5060299;28;20021;-70
2022/04/12 11:06:22;;;;;;;12.63;8.02;;;24.90;47.80;;;;;;5055584;28;20064;-70
2022/04/12 11:09:16;;;;;;;12.50;7.72;;;26.10;42.90;;;;;;5058822;28;20029;-70
2022/04/12 11:11:52;;;;;;;13.25;7.88;;;27.20;43.00;;;;;;5058364;28;20040;-69
2022/04/12 11:14:38;;;;;;;14.88;7.40;;;27.10;42.00;;;;;;5060712;28;20053;-70
2022/04/12 11:17:14;;;;;;;13.25;7.25;;;28.40;41.30;;;;;;5060465;28;20404;-70
2022/04/12 11:19:45;;;;;;;15.40;8.23;;;27.90;40.40;;;;;;5055901;28;20037;-70
2022/04/12 11:22:13;;;;;;;11.55;7.70;;;27.80;39.90;;;;;;5059516;28;20032;-70
2022/04/12 11:24:39;;;;;;;14.35;7.85;;;28.00;40.60;;;;;;5056194;28;20554;-69
2022/04/12 11:27:09;;;;;;;13.77;7.63;;;27.10;40.00;;;;;;5060382;28;20092;-70
2022/04/12 11:29:37;;;;;;;13.77;7.93;;;26.30;41.10;;;;;;5060452;28;20372;-70
2022/04/12 11:32:04;;;;;;;14.80;8.80;;;25.00;41.40;;;;;;5060484;28;20033;-70
2022/04/12 11:34:31;;;;;;;13.75;7.97;;;23.00;42.80;;;;;;5060131;28;20045;-69
2022/04/12 11:37:00;;;;;;;14.82;9.02;;;23.20;45.90;;;;;;5056675;28;20025;-70
2022/04/12 11:39:43;;;;;;;13.95;8.00;;;22.60;46.20;;;;;;5058079;28;20052;-70
2022/04/12 11:42:12;;;;;;;15.70;8.55;;;23.80;47.70;;;;;;5048678;28;20021;-69
2022/04/12 11:44:38;;;;;;;14.30;8.38;;;23.70;46.20;;;;;;5059414;28;20055;-69
2022/04/12 11:47:09;;;;;;;13.90;9.18;;;23.80;46.30;;;;;;5060015;28;20043;-69
2022/04/12 11:49:40;;;;;;;14.02;8.30;;;22.10;44.90;;;;;;5061293;28;20033;-70
2022/04/12 11:52:08;;;;;;;16.75;9.10;;;22.90;48.10;;;;;;5061148;28;20104;-70
2022/04/12 11:54:45;;;;;;;13.55;8.40;;;22.60;46.70;;;;;;5060323;28;20021;-70
2022/04/12 11:57:24;;;;;;;14.77;8.55;;;23.00;47.90;;;;;;5042764;28;20029;-70
2022/04/12 11:59:57;;;;;;;16.05;8.55;;;22.20;48.90;;;;;;5053800;28;20095;-70
2022/04/12 12:02:25;;;;;;;14.13;9.10;;;22.20;48.70;;;;;;5059776;28;20436;-70
2022/04/12 12:05:07;;;;;;;13.43;8.15;;;22.10;50.90;;;;;;5059682;28;20025;-70
2022/04/12 12:07:36;;;;;;;15.13;8.55;;;23.50;49.90;;;;;;5039519;28;20033;-69
2022/04/12 12:10:11;;;;;;;15.02;8.32;;;24.10;49.60;;;;;;5052824;28;20021;-69
2022/04/12 12:12:47;;;;;;;14.23;8.68;;;23.70;49.00;;;;;;5059347;28;20029;-69
2022/04/12 12:15:23;;;;;;;17.17;9.75;;;23.90;47.40;;;;;;5054388;28;20408;-69
2022/04/12 12:18:05;;;;;;;14.55;8.63;;;23.10;46.00;;;;;;5056811;28;20067;-70
2022/04/12 12:20:31;;;;;;;14.23;8.05;;;24.40;47.60;;;;;;5044321;28;20529;-69
2022/04/12 12:22:59;;;;;;;14.98;8.35;;;24.70;47.70;;;;;;5064201;28;20025;-69
2022/04/12 12:25:44;;;;;;;14.80;8.60;;;24.80;47.10;;;;;;5061305;28;20036;-69
2022/04/12 12:28:14;;;;;;;15.55;9.45;;;23.90;44.30;;;;;;5061819;28;20032;-69
2022/04/12 12:30:40;;;;;;;15.98;9.07;;;23.30;45.60;;;;;;5064208;28;20025;-70
2022/04/12 12:33:06;;;;;;;14.25;8.30;;;23.90;49.30;;;;;;5062838;28;20027;-69
2022/04/12 12:35:31;;;;;;;14.88;8.45;;;25.10;50.00;;;;;;5063237;28;20104;-69
2022/04/12 12:38:12;;;;;;;16.50;9.20;;;25.80;47.60;;;;;;5059383;28;20052;-69
2022/04/12 12:40:38;;;;;;;17.90;9.23;;;25.80;44.90;;;;;;5056258;28;20739;-70